Ana Sayfa
METAR-TAF:

METAR-TAF

Havaalanları :

Air Force Base Hoedspruit - Eastgate Airport

Hoedspruit, Güney Afrika

Enlem: 24-21-17S, Boylam: 31-03-01E, yükseklik: 531 m

Güncel hava durumu gözlemi

Rapor saat 05:00 UTC de 57 dakika önce yapıldı.
Rüzgar doğu/kuzeydoğudan 5 kt
Sıcaklık 20°C
Nem 83%
Basınç 1022 hPa

METAR: FAHS 150500Z AUTO 06005KT //// // ////// 20/17 Q1022

Saat: 07:57 (05:57 UTC)

Tahmin

Rapor saat 09:00 UTC de 20 saat ve 57 dakika önce yapıldı.
Ayın 14'si saat 10 UTC'den ayın 14'si saat 18 UTC'ye kadar geçerli Tahmin
Rüzgar güney/güneydoğudan 8 kt
Görüş mesafesi 10 km veya daha fazla
1500 m altında bulut yok ve kümülonimbus yok
Dönüşüyor
ayın 14'si saat 11 UTC'den ayın 14'si saat 13 UTC'ye kadar
Rüzgar kuzeydoğudan 10 kt

TAF: FAHS 140900Z 1410/1418 16008KT CAVOK TX28/1413Z TN22/1418Z BECMG 1411/1413 04010KT

4.000'den fazla havaalanı için hava durumu gözlemleri ve tahminleri (METAR ve TAF raporları).

Kullanılabilir istasyonlar harita üzerinde sarı ve kırmızı noktalarla gösterilir.

İstasyonun adını görmek için fareyi noktanın üzerinde gezdirin.

Sonrasında hava gözlem ve tahminlerini görmek için tıklayın.

Haritayı değiştirmek için: yaklaştırmak için siyah artı işaretli yeşil düğmeye ve uzaklaştırmak için de eksi işaretli düğmeye hızla tıklayın; bitişik haritalar için yeşil okları kullanın.


METAR-TAF: